Time;durP1;ratioP1;P1;durP2;ratioP2;P2;SDS_P1;SDS_P2;PMS_P1;PMS_P2;Temp;Humidity;BMP_temperature;BMP_pressure;BME280_temperature;BME280_humidity;BME280_pressure;Samples;Min_cycle;Max_cycle;Signal;HPM_P1;HPM_P2
2022/10/18 02:45:23;;;;;;;7.88;3.28;;;16.30;99.90;;;;;;5410984;23;20056;-86
2022/10/18 02:47:50;;;;;;;5.55;3.10;;;16.20;99.90;;;;;;4898901;29;20053;-86
2022/10/18 02:50:17;;;;;;;4.95;3.63;;;16.10;99.90;;;;;;4922517;29;20032;-86
2022/10/18 02:52:44;;;;;;;5.95;3.80;;;16.00;99.90;;;;;;4923063;29;20036;-86
2022/10/18 02:55:10;;;;;;;6.80;3.65;;;16.10;99.90;;;;;;4921826;29;20051;-86
2022/10/18 02:57:37;;;;;;;5.25;3.60;;;16.10;99.90;;;;;;4921543;29;20041;-86
2022/10/18 03:00:05;;;;;;;9.20;3.55;;;16.00;99.90;;;;;;4903143;29;20057;-86
2022/10/18 03:02:32;;;;;;;19.27;3.88;;;16.00;99.90;;;;;;4896611;29;20073;-86
2022/10/18 03:04:58;;;;;;;11.20;3.63;;;16.00;99.90;;;;;;4895677;29;20052;-86
2022/10/18 03:07:25;;;;;;;14.48;4.20;;;15.90;99.90;;;;;;4896149;29;20056;-85
2022/10/18 03:09:52;;;;;;;10.70;3.50;;;15.90;99.90;;;;;;4895086;29;20554;-85
2022/10/18 03:12:18;;;;;;;6.57;3.65;;;15.90;99.90;;;;;;4890278;29;20425;-86
2022/10/18 03:14:56;;;;;;;11.52;3.83;;;15.80;99.90;;;;;;4898630;29;20210;-86
2022/10/18 03:17:22;;;;;;;7.05;3.70;;;15.80;99.90;;;;;;4897117;29;20430;-86
2022/10/18 03:19:49;;;;;;;9.02;3.80;;;15.80;99.90;;;;;;4895568;29;20053;-86
2022/10/18 03:22:16;;;;;;;12.48;4.22;;;15.70;99.90;;;;;;4897651;29;20066;-85
2022/10/18 03:24:42;;;;;;;7.78;4.00;;;15.80;99.90;;;;;;4901836;29;20095;-85
2022/10/18 03:27:09;;;;;;;6.78;3.97;;;15.70;99.90;;;;;;4901011;29;20068;-83
2022/10/18 03:29:36;;;;;;;9.30;3.80;;;15.80;99.90;;;;;;4897819;29;20059;-84
2022/10/18 03:32:03;;;;;;;8.90;3.58;;;15.60;99.90;;;;;;4899357;29;20060;-85
2022/10/18 03:34:29;;;;;;;11.45;4.07;;;15.60;99.90;;;;;;4900767;29;20429;-84
2022/10/18 03:36:56;;;;;;;9.15;3.60;;;15.60;99.90;;;;;;4898497;29;20113;-84
2022/10/18 03:39:29;;;;;;;9.75;3.70;;;15.60;99.90;;;;;;4899923;29;20061;-84
2022/10/18 03:41:55;;;;;;;11.00;3.20;;;15.60;99.90;;;;;;4892530;29;20084;-85
2022/10/18 03:44:22;;;;;;;6.55;3.42;;;15.60;99.90;;;;;;4897493;29;20512;-84
2022/10/18 03:46:48;;;;;;;16.10;3.78;;;15.60;99.90;;;;;;4891413;29;20502;-84
2022/10/18 03:49:15;;;;;;;11.35;4.35;;;15.50;99.90;;;;;;4898936;29;20527;-84
2022/10/18 03:51:42;;;;;;;8.00;3.53;;;15.50;99.90;;;;;;4898256;29;20422;-84
2022/10/18 03:54:08;;;;;;;7.05;3.40;;;15.50;99.90;;;;;;4899570;29;20427;-85
2022/10/18 03:56:35;;;;;;;7.68;3.70;;;15.50;99.90;;;;;;4894879;29;20440;-85
2022/10/18 03:59:03;;;;;;;10.93;3.33;;;15.40;99.90;;;;;;4899144;29;20045;-84
2022/10/18 04:01:30;;;;;;;5.80;2.92;;;15.40;99.90;;;;;;4900989;29;20064;-84
2022/10/18 04:03:57;;;;;;;7.35;3.20;;;15.30;99.90;;;;;;4894617;29;20115;-86
2022/10/18 04:06:23;;;;;;;11.05;3.28;;;15.30;99.90;;;;;;4900492;29;20071;-86
2022/10/18 04:08:50;;;;;;;7.85;3.17;;;15.30;99.90;;;;;;4900823;29;20510;-85
2022/10/18 04:11:17;;;;;;;8.18;3.28;;;15.30;99.90;;;;;;4902306;29;20538;-85
2022/10/18 04:13:43;;;;;;;11.77;3.40;;;15.20;99.90;;;;;;4899872;29;20064;-87
2022/10/18 04:16:10;;;;;;;8.98;3.05;;;15.20;99.90;;;;;;4900125;29;20495;-83
2022/10/18 04:18:37;;;;;;;4.65;3.17;;;15.20;99.90;;;;;;4897627;29;20049;-84
2022/10/18 04:21:03;;;;;;;7.97;3.25;;;15.20;99.90;;;;;;4898229;29;20048;-83
2022/10/18 04:23:30;;;;;;;9.80;3.47;;;15.20;99.90;;;;;;4897269;29;20056;-84
2022/10/18 04:26:02;;;;;;;9.63;3.40;;;15.10;99.90;;;;;;4899340;29;20479;-87
2022/10/18 04:28:28;;;;;;;7.22;2.97;;;15.20;99.90;;;;;;4902041;29;20052;-85
2022/10/18 04:31:00;;;;;;;16.90;3.67;;;15.20;99.90;;;;;;4904009;29;20053;-86
2022/10/18 04:33:27;;;;;;;9.88;3.03;;;15.20;99.90;;;;;;4900243;29;20061;-84
2022/10/18 04:35:53;;;;;;;10.95;3.53;;;15.20;99.90;;;;;;4898569;29;20048;-84
2022/10/18 04:38:20;;;;;;;8.75;4.25;;;15.20;99.90;;;;;;4901617;29;20048;-86
2022/10/18 04:40:47;;;;;;;9.60;3.20;;;15.20;99.90;;;;;;4901611;29;20336;-86
2022/10/18 04:43:14;;;;;;;9.45;3.05;;;15.20;99.90;;;;;;4898270;29;20049;-84
2022/10/18 04:45:41;;;;;;;6.88;3.00;;;15.20;99.90;;;;;;4902900;29;20049;-84
2022/10/18 04:48:07;;;;;;;8.80;3.20;;;15.20;99.90;;;;;;4898681;29;20144;-84
2022/10/18 04:50:34;;;;;;;9.35;3.10;;;15.20;99.90;;;;;;4913342;29;20057;-84
2022/10/18 04:53:01;;;;;;;5.40;3.55;;;15.20;99.90;;;;;;4901429;29;20064;-84
2022/10/18 04:55:27;;;;;;;6.20;3.45;;;15.30;99.90;;;;;;4897204;29;20055;-86
2022/10/18 04:57:54;;;;;;;10.25;3.00;;;15.40;99.90;;;;;;4908105;29;20494;-85
2022/10/18 05:00:21;;;;;;;7.25;3.50;;;15.30;99.90;;;;;;4899581;29;20068;-83
2022/10/18 05:02:47;;;;;;;7.45;3.13;;;15.40;99.90;;;;;;4886376;29;20053;-83
2022/10/18 05:05:14;;;;;;;6.47;2.65;;;15.50;99.90;;;;;;4897898;29;20060;-85
2022/10/18 05:07:41;;;;;;;13.82;3.55;;;15.50;99.90;;;;;;4901100;29;20057;-85
2022/10/18 05:10:08;;;;;;;10.77;2.92;;;15.50;99.90;;;;;;4899580;29;20116;-84
2022/10/18 05:12:35;;;;;;;9.60;3.15;;;15.50;99.90;;;;;;4898644;29;20422;-84
2022/10/18 05:15:01;;;;;;;7.18;3.15;;;15.50;99.90;;;;;;4901083;29;20136;-85
2022/10/18 05:17:28;;;;;;;7.03;2.50;;;15.60;99.90;;;;;;4894580;29;20055;-85
2022/10/18 05:19:55;;;;;;;6.60;2.90;;;15.60;99.90;;;;;;4900769;29;20052;-84
2022/10/18 05:22:22;;;;;;;9.23;3.15;;;15.60;99.90;;;;;;4897399;29;20067;-84
2022/10/18 05:24:48;;;;;;;11.98;2.80;;;15.60;99.90;;;;;;4896805;29;20510;-84
2022/10/18 05:27:15;;;;;;;4.95;3.15;;;15.70;99.90;;;;;;4894286;29;20048;-86
2022/10/18 05:29:42;;;;;;;17.42;3.25;;;15.70;99.90;;;;;;4900131;29;20128;-83
2022/10/18 05:32:08;;;;;;;4.82;2.88;;;15.70;99.90;;;;;;4896997;29;20049;-84
2022/10/18 05:34:35;;;;;;;10.63;4.25;;;15.80;99.90;;;;;;4897474;29;20059;-85
2022/10/18 05:37:02;;;;;;;9.45;3.13;;;15.80;99.90;;;;;;4899588;29;20053;-84
2022/10/18 05:39:29;;;;;;;16.80;5.03;;;15.80;99.90;;;;;;4894120;29;20053;-84
2022/10/18 05:41:56;;;;;;;10.18;4.18;;;15.90;99.90;;;;;;4901260;29;20052;-84
2022/10/18 05:44:23;;;;;;;8.23;3.97;;;15.90;99.90;;;;;;4899128;29;20055;-84
2022/10/18 05:46:50;;;;;;;5.97;2.97;;;15.90;99.90;;;;;;4909647;29;20148;-85
2022/10/18 05:49:17;;;;;;;7.40;3.08;;;16.00;99.90;;;;;;4892626;29;20059;-85
2022/10/18 05:51:43;;;;;;;5.95;3.17;;;16.00;99.90;;;;;;4901814;29;20056;-85
2022/10/18 05:54:11;;;;;;;8.82;3.83;;;16.00;99.90;;;;;;4905004;29;20148;-85
2022/10/18 05:56:39;;;;;;;4.82;3.33;;;16.00;99.90;;;;;;4902609;29;20131;-83
2022/10/18 05:59:10;;;;;;;8.57;3.40;;;16.10;99.90;;;;;;4906534;29;20440;-84
2022/10/18 06:01:39;;;;;;;8.30;3.83;;;16.10;99.90;;;;;;4905502;29;20048;-85
2022/10/18 06:04:06;;;;;;;9.27;3.20;;;16.20;99.90;;;;;;4904541;29;20052;-84
2022/10/18 06:06:33;;;;;;;3.65;2.70;;;16.20;99.90;;;;;;4901582;29;20052;-84
2022/10/18 06:09:02;;;;;;;19.05;3.35;;;16.20;99.90;;;;;;4905632;29;20148;-83
2022/10/18 06:11:30;;;;;;;4.78;3.15;;;16.30;99.90;;;;;;4895954;29;20060;-85
2022/10/18 06:13:57;;;;;;;12.15;3.05;;;16.40;99.90;;;;;;4897968;29;20067;-84
2022/10/18 06:16:24;;;;;;;8.10;2.40;;;16.40;99.90;;;;;;4902339;29;20059;-85
2022/10/18 06:18:58;;;;;;;10.88;3.35;;;16.50;99.90;;;;;;4903826;29;20057;-85
2022/10/18 06:21:26;;;;;;;5.05;2.38;;;16.60;99.90;;;;;;4902724;29;20526;-83
2022/10/18 06:23:55;;;;;;;9.10;3.20;;;16.60;99.90;;;;;;4902645;29;20061;-85
2022/10/18 06:26:23;;;;;;;5.67;3.20;;;16.70;99.90;;;;;;4902792;29;20059;-85
2022/10/18 06:28:49;;;;;;;6.65;2.30;;;16.70;99.90;;;;;;4899219;29;20302;-85
2022/10/18 06:31:17;;;;;;;5.90;2.83;;;16.80;99.90;;;;;;4900380;29;20057;-86
2022/10/18 06:33:44;;;;;;;8.02;2.45;;;16.90;99.90;;;;;;4901770;29;20048;-85
2022/10/18 06:36:14;;;;;;;4.50;2.15;;;16.90;99.90;;;;;;4902123;29;20573;-84
2022/10/18 06:38:41;;;;;;;6.22;2.75;;;17.00;99.90;;;;;;4902716;29;20053;-86
2022/10/18 06:41:08;;;;;;;7.28;2.85;;;17.10;99.90;;;;;;4900786;29;20060;-85
2022/10/18 06:43:35;;;;;;;5.97;2.70;;;17.10;99.90;;;;;;4895230;29;20052;-87
2022/10/18 06:46:05;;;;;;;10.13;2.90;;;17.10;99.90;;;;;;4902777;29;20426;-85
2022/10/18 06:48:33;;;;;;;7.82;2.92;;;17.10;99.90;;;;;;4900469;29;20059;-85
2022/10/18 06:51:04;;;;;;;3.47;2.42;;;17.20;99.90;;;;;;4894875;29;20052;-85
2022/10/18 06:53:32;;;;;;;;;;;17.30;99.90;;;;;;4902513;29;20052;-85
2022/10/18 06:56:06;;;;;;;5.03;2.47;;;17.30;99.90;;;;;;4911255;29;20002;-85
2022/10/18 06:58:34;;;;;;;5.90;2.65;;;17.30;99.90;;;;;;4905942;29;20055;-85
2022/10/18 07:01:06;;;;;;;4.80;2.80;;;17.30;99.90;;;;;;4891957;29;20045;-85
2022/10/18 07:03:34;;;;;;;7.82;3.25;;;17.40;99.90;;;;;;4901070;29;20052;-84
2022/10/18 07:06:01;;;;;;;8.15;2.70;;;17.40;99.90;;;;;;4895230;29;20056;-86
2022/10/18 07:08:28;;;;;;;5.05;2.60;;;17.40;99.90;;;;;;4885461;29;20057;-85
2022/10/18 07:10:55;;;;;;;5.53;2.30;;;17.50;99.90;;;;;;4905476;29;20514;-86
2022/10/18 07:13:21;;;;;;;4.80;2.67;;;17.50;99.90;;;;;;4890690;29;20053;-84
2022/10/18 07:16:06;;;;;;;6.70;1.92;;;17.60;99.90;;;;;;4893484;29;20053;-85
2022/10/18 07:18:35;;;;;;;3.75;2.50;;;17.70;99.90;;;;;;4895837;29;20044;-86
2022/10/18 07:21:10;;;;;;;7.57;2.58;;;17.80;99.90;;;;;;4904702;29;20053;-85
2022/10/18 07:23:39;;;;;;;3.70;1.95;;;17.80;99.90;;;;;;4875313;29;20057;-85
2022/10/18 07:26:18;;;;;;;6.57;2.20;;;17.90;99.90;;;;;;4889861;29;20060;-86
2022/10/18 07:28:47;;;;;;;3.47;2.00;;;18.00;99.90;;;;;;4899416;29;20514;-86
2022/10/18 07:31:14;;;;;;;3.05;2.35;;;18.20;99.90;;;;;;4891253;29;20053;-86
2022/10/18 07:33:44;;;;;;;3.92;2.10;;;18.20;99.90;;;;;;4890719;29;20059;-86
2022/10/18 07:36:12;;;;;;;5.77;2.03;;;18.30;99.90;;;;;;4890318;29;20045;-85
2022/10/18 07:38:39;;;;;;;5.07;2.30;;;18.40;99.90;;;;;;4883542;29;20052;-85
2022/10/18 07:41:09;;;;;;;9.38;2.40;;;18.40;99.90;;;;;;4897020;29;20692;-83
2022/10/18 07:43:36;;;;;;;3.50;2.17;;;18.50;99.90;;;;;;4888756;29;20064;-85
2022/10/18 07:46:04;;;;;;;6.82;2.25;;;18.50;99.90;;;;;;4891908;29;20055;-86
2022/10/18 07:48:31;;;;;;;3.92;2.25;;;18.50;99.90;;;;;;4898487;29;20459;-86
2022/10/18 07:50:59;;;;;;;6.40;1.77;;;18.60;99.90;;;;;;4893861;29;20148;-86
2022/10/18 07:53:27;;;;;;;4.68;2.00;;;18.70;99.90;;;;;;4891017;29;20050;-86
2022/10/18 07:56:01;;;;;;;5.63;2.53;;;18.80;99.90;;;;;;4888000;29;20491;-85
2022/10/18 07:58:34;;;;;;;5.13;2.10;;;18.90;99.90;;;;;;4876600;29;20041;-86
2022/10/18 08:01:05;;;;;;;5.82;2.00;;;19.00;99.90;;;;;;4890722;29;20076;-85
2022/10/18 08:03:33;;;;;;;8.27;2.30;;;19.10;99.90;;;;;;4874469;29;20060;-86
2022/10/18 08:05:59;;;;;;;4.63;2.40;;;19.20;99.90;;;;;;4892884;29;21044;-85
2022/10/18 08:08:29;;;;;;;5.95;2.10;;;19.30;99.90;;;;;;4901265;29;20052;-87
2022/10/18 08:11:05;;;;;;;4.03;1.90;;;19.30;99.90;;;;;;4879125;29;20049;-84
2022/10/18 08:13:41;;;;;;;2.50;2.08;;;19.40;99.90;;;;;;4886752;29;20049;-85
2022/10/18 08:16:23;;;;;;;7.43;2.30;;;19.40;99.90;;;;;;4887644;29;20438;-84
2022/10/18 08:18:53;;;;;;;7.55;1.92;;;19.40;99.90;;;;;;4877574;29;20041;-84
2022/10/18 08:21:22;;;;;;;11.93;2.20;;;19.50;99.90;;;;;;4882738;29;20131;-86
2022/10/18 08:23:49;;;;;;;3.40;2.10;;;19.50;99.90;;;;;;4880166;29;20140;-83
2022/10/18 08:26:19;;;;;;;5.13;2.40;;;19.50;99.90;;;;;;4886047;29;20087;-83
2022/10/18 08:28:46;;;;;;;8.77;2.10;;;19.70;99.90;;;;;;4880270;29;20045;-85
2022/10/18 08:31:29;;;;;;;6.25;2.20;;;19.70;99.90;;;;;;4884567;29;20057;-86
2022/10/18 08:33:56;;;;;;;7.25;3.00;;;19.60;99.90;;;;;;4880413;29;20490;-84
2022/10/18 08:36:23;;;;;;;5.82;2.10;;;19.70;99.90;;;;;;4884943;29;20052;-87
2022/10/18 08:38:50;;;;;;;5.20;2.20;;;19.60;99.90;;;;;;4892824;29;20502;-86
2022/10/18 08:41:28;;;;;;;6.72;2.10;;;19.70;99.90;;;;;;4891265;29;20131;-84
2022/10/18 08:44:02;;;;;;;7.70;2.25;;;19.60;99.90;;;;;;4876647;29;20065;-84
2022/10/18 08:46:35;;;;;;;4.80;2.03;;;19.60;99.90;;;;;;4896160;29;20057;-84
2022/10/18 08:49:04;;;;;;;5.00;2.58;;;19.50;99.90;;;;;;4889280;29;20074;-85
2022/10/18 08:51:42;;;;;;;6.40;2.58;;;19.50;99.90;;;;;;4886139;29;20048;-84
2022/10/18 08:54:29;;;;;;;5.75;2.05;;;19.40;99.90;;;;;;4888948;29;20060;-84
2022/10/18 08:57:00;;;;;;;9.23;2.35;;;19.40;99.90;;;;;;4885779;29;20049;-84
2022/10/18 08:59:53;;;;;;;3.28;1.98;;;19.40;99.90;;;;;;4885573;29;20076;-86
2022/10/18 09:02:28;;;;;;;3.95;2.00;;;19.30;99.90;;;;;;4881929;29;20052;-84
2022/10/18 09:05:08;;;;;;;5.80;2.38;;;19.30;99.90;;;;;;4880021;29;20129;-84
2022/10/18 09:07:41;;;;;;;3.45;1.98;;;19.30;99.90;;;;;;4884617;29;20064;-85
2022/10/18 09:10:17;;;;;;;3.08;1.90;;;19.30;99.90;;;;;;4882098;29;20056;-85
2022/10/18 09:12:47;;;;;;;5.03;2.17;;;19.40;99.90;;;;;;4886931;29;20060;-84
2022/10/18 09:15:13;;;;;;;4.70;2.50;;;19.40;99.90;;;;;;4886748;29;20072;-86
2022/10/18 09:17:43;;;;;;;7.55;3.15;;;19.40;99.90;;;;;;4882580;29;20057;-84
2022/10/18 09:20:21;;;;;;;11.98;5.18;;;19.40;99.90;;;;;;4883998;29;20048;-86
2022/10/18 09:22:54;;;;;;;15.45;8.30;;;19.50;99.90;;;;;;4886053;29;20049;-84
2022/10/18 09:25:35;;;;;;;4.00;2.35;;;19.50;99.90;;;;;;4873743;29;20418;-82
2022/10/18 09:28:22;;;;;;;5.53;2.15;;;19.50;99.90;;;;;;4883587;29;20145;-86
2022/10/18 09:31:12;;;;;;;5.70;2.35;;;19.50;99.90;;;;;;4884061;29;20101;-83
2022/10/18 09:34:01;;;;;;;7.45;2.35;;;19.50;99.90;;;;;;4886850;29;20483;-85
2022/10/18 09:36:34;;;;;;;4.43;1.83;;;19.50;99.90;;;;;;4885572;29;20065;-84
2022/10/18 09:39:13;;;;;;;5.70;2.60;;;19.60;99.90;;;;;;4905628;29;20053;-86
2022/10/18 09:41:56;;;;;;;5.53;2.42;;;19.60;99.90;;;;;;4888058;29;20108;-83
2022/10/18 09:44:37;;;;;;;5.28;1.92;;;19.60;99.90;;;;;;4889891;29;20075;-85
2022/10/18 09:47:18;;;;;;;3.38;1.88;;;19.60;99.90;;;;;;4888525;29;20061;-85
2022/10/18 09:49:46;;;;;;;;;;;19.60;99.90;;;;;;4890473;29;20049;-85
2022/10/18 09:52:19;;;;;;;7.43;2.88;;;19.60;99.90;;;;;;4888953;29;19935;-85
2022/10/18 09:54:56;;;;;;;5.97;2.05;;;19.60;99.90;;;;;;4883042;29;20045;-85
2022/10/18 09:57:33;;;;;;;6.82;2.40;;;19.80;99.90;;;;;;4881875;29;20048;-85
2022/10/18 10:00:05;;;;;;;5.95;1.92;;;19.80;99.90;;;;;;4891288;29;20059;-87
2022/10/18 10:02:32;;;;;;;5.82;2.28;;;19.90;99.90;;;;;;4887618;29;20410;-85
2022/10/18 10:04:59;;;;;;;4.93;2.45;;;20.10;99.90;;;;;;4887082;29;20075;-85
2022/10/18 10:07:28;;;;;;;4.70;1.98;;;20.20;99.90;;;;;;4887816;29;20053;-85
2022/10/18 10:10:18;;;;;;;4.90;2.15;;;20.30;99.90;;;;;;4883530;29;20053;-84
2022/10/18 10:12:45;;;;;;;4.57;2.17;;;20.40;99.90;;;;;;4880422;29;20060;-84
2022/10/18 10:15:21;;;;;;;11.60;2.42;;;20.50;99.90;;;;;;4879675;29;20078;-84
2022/10/18 10:17:54;;;;;;;3.22;2.15;;;20.50;99.90;;;;;;4876852;29;20088;-85
2022/10/18 10:20:24;;;;;;;5.18;2.25;;;20.50;99.90;;;;;;4875303;29;20041;-84
2022/10/18 10:22:51;;;;;;;4.22;2.08;;;20.40;99.90;;;;;;4880213;29;20045;-84
2022/10/18 10:25:33;;;;;;;6.88;2.28;;;20.30;99.90;;;;;;4891994;29;20407;-84
2022/10/18 10:28:15;;;;;;;6.65;2.33;;;20.30;99.90;;;;;;4873947;29;20049;-84
2022/10/18 10:30:41;;;;;;;8.10;2.20;;;20.40;99.90;;;;;;4877823;29;20499;-84
2022/10/18 10:33:35;;;;;;;6.95;2.13;;;20.40;99.90;;;;;;4885913;29;20430;-84
2022/10/18 10:36:16;;;;;;;7.32;2.63;;;20.40;99.90;;;;;;4889644;29;20052;-86
2022/10/18 10:38:43;;;;;;;4.47;2.00;;;20.40;99.90;;;;;;4888038;29;20064;-85
2022/10/18 10:41:21;;;;;;;4.72;1.95;;;20.40;99.90;;;;;;4892554;29;20051;-84
2022/10/18 10:43:49;;;;;;;5.47;2.10;;;20.40;99.90;;;;;;4889781;29;20542;-84
2022/10/18 10:46:18;;;;;;;7.18;2.38;;;20.50;99.90;;;;;;4891702;29;20127;-84
2022/10/18 10:48:55;;;;;;;5.80;2.17;;;20.50;99.90;;;;;;4880253;29;20522;-84
2022/10/18 10:51:42;;;;;;;5.57;1.95;;;20.60;99.90;;;;;;4886876;29;20056;-85
2022/10/18 10:54:16;;;;;;;11.00;3.00;;;20.70;99.90;;;;;;4888773;29;20052;-83
2022/10/18 10:57:26;;;;;;;6.20;2.47;;;20.70;99.90;;;;;;4880792;29;20515;-84
2022/10/18 10:59:55;;;;;;;6.95;2.10;;;20.70;99.90;;;;;;4878230;29;20053;-84
2022/10/18 11:02:29;;;;;;;8.93;2.92;;;20.70;99.90;;;;;;4890049;29;20132;-83
2022/10/18 11:05:24;;;;;;;7.90;2.47;;;20.70;99.90;;;;;;4889871;29;20124;-84
2022/10/18 11:07:58;;;;;;;10.00;2.60;;;20.70;99.90;;;;;;4888757;29;20045;-82
2022/10/18 11:10:31;;;;;;;6.13;2.40;;;20.70;99.90;;;;;;4891042;29;20061;-83
2022/10/18 11:13:01;;;;;;;9.32;2.20;;;20.70;99.90;;;;;;4884251;29;20049;-82
2022/10/18 11:15:28;;;;;;;;;;;20.70;99.90;;;;;;4882592;29;20056;-83
2022/10/18 11:18:13;;;;;;;7.00;1.92;;;20.70;99.90;;;;;;4895706;29;19923;-83
2022/10/18 11:20:46;;;;;;;12.32;1.90;;;20.70;99.90;;;;;;4883598;29;20049;-83
2022/10/18 11:23:14;;;;;;;5.50;1.70;;;20.70;99.90;;;;;;4905040;23;20032;-85
2022/10/18 11:25:59;;;;;;;4.57;1.60;;;20.80;99.90;;;;;;4878743;29;20542;-85
2022/10/18 11:28:35;;;;;;;6.47;1.83;;;20.80;99.90;;;;;;4876335;29;20068;-84
2022/10/18 11:31:13;;;;;;;5.97;1.85;;;20.70;99.90;;;;;;4878364;29;20147;-85
2022/10/18 11:33:46;;;;;;;7.68;1.88;;;20.70;99.90;;;;;;4878036;29;20430;-85
2022/10/18 11:36:36;;;;;;;6.38;2.40;;;20.80;99.90;;;;;;4868690;29;20057;-86
2022/10/18 11:39:24;;;;;;;4.93;2.03;;;20.80;99.90;;;;;;4868784;29;20128;-86
2022/10/18 11:42:04;;;;;;;10.52;2.08;;;20.80;99.90;;;;;;4867448;29;20053;-86
2022/10/18 11:44:42;;;;;;;5.45;2.08;;;20.80;99.90;;;;;;4881455;29;20064;-87
2022/10/18 11:47:15;;;;;;;4.43;1.67;;;20.80;99.90;;;;;;4896143;29;20045;-87
2022/10/18 11:49:42;;;;;;;8.02;2.00;;;20.90;99.90;;;;;;4877639;29;20060;-86
2022/10/18 11:52:11;;;;;;;6.93;2.30;;;21.00;99.90;;;;;;4865666;29;20132;-86
2022/10/18 11:54:59;;;;;;;8.35;2.03;;;21.00;99.90;;;;;;4870712;29;20052;-86
2022/10/18 11:57:35;;;;;;;3.55;1.80;;;21.00;99.90;;;;;;4867303;29;20444;-86
2022/10/18 12:00:17;;;;;;;4.97;2.10;;;21.00;99.90;;;;;;4867033;29;20053;-86
2022/10/18 12:02:54;;;;;;;5.82;1.83;;;20.90;99.90;;;;;;4875100;29;20048;-85
2022/10/18 12:05:21;;;;;;;4.25;2.22;;;20.90;99.90;;;;;;4876803;29;20139;-85
2022/10/18 12:08:01;;;;;;;8.07;2.00;;;20.90;99.90;;;;;;4871087;29;20049;-85
2022/10/18 12:10:30;;;;;;;5.70;2.13;;;21.00;99.90;;;;;;4877739;29;20060;-85
2022/10/18 12:13:40;;;;;;;5.45;2.08;;;21.00;99.90;;;;;;4875368;29;20057;-85
2022/10/18 12:16:08;;;;;;;5.47;1.92;;;21.00;99.90;;;;;;4871319;29;20053;-85
2022/10/18 12:18:41;;;;;;;6.07;1.75;;;21.00;99.90;;;;;;4887643;29;20057;-85
2022/10/18 12:21:11;;;;;;;6.80;2.00;;;21.00;99.90;;;;;;4875360;29;20085;-85
2022/10/18 12:23:48;;;;;;;5.78;2.00;;;21.00;99.90;;;;;;4875657;29;20403;-85
2022/10/18 12:26:15;;;;;;;5.90;1.60;;;21.00;99.90;;;;;;4874984;29;20129;-85
2022/10/18 12:29:02;;;;;;;5.82;1.70;;;21.00;99.90;;;;;;4876287;29;20053;-85
2022/10/18 12:31:46;;;;;;;6.63;2.15;;;21.10;99.90;;;;;;4877179;29;20140;-85
2022/10/18 12:34:28;;;;;;;8.38;1.80;;;21.10;99.90;;;;;;4877277;29;20067;-85
2022/10/18 12:37:15;;;;;;;5.47;1.80;;;21.10;99.90;;;;;;4876451;29;20055;-85
2022/10/18 12:39:49;;;;;;;10.45;2.63;;;21.20;99.90;;;;;;4878069;29;20057;-84
2022/10/18 12:42:42;;;;;;;6.75;1.80;;;21.20;99.90;;;;;;4874176;29;20049;-85
2022/10/18 12:45:11;;;;;;;3.45;1.63;;;21.20;99.90;;;;;;4872157;29;20049;-85
2022/10/18 12:47:39;;;;;;;5.55;1.67;;;21.20;99.90;;;;;;4872216;29;20055;-85
2022/10/18 12:50:24;;;;;;;7.22;1.63;;;21.30;99.90;;;;;;4871838;29;20045;-85
2022/10/18 12:53:23;;;;;;;4.30;1.67;;;21.30;99.90;;;;;;4870474;29;20389;-85
2022/10/18 12:55:51;;;;;;;3.40;1.65;;;21.20;99.90;;;;;;4870655;29;20065;-84
2022/10/18 12:58:24;;;;;;;8.18;2.10;;;21.20;99.90;;;;;;4871999;29;20057;-84
2022/10/18 13:00:53;;;;;;;8.27;1.52;;;21.20;99.90;;;;;;4873026;29;20045;-85
2022/10/18 13:03:25;;;;;;;3.22;1.90;;;21.20;99.90;;;;;;4880281;29;20057;-85
2022/10/18 13:05:54;;;;;;;3.63;1.58;;;21.20;99.90;;;;;;4884751;29;20049;-85
2022/10/18 13:08:33;;;;;;;2.95;1.58;;;21.20;99.90;;;;;;4869716;29;20056;-85
2022/10/18 13:11:00;;;;;;;4.50;1.67;;;21.20;99.90;;;;;;4861654;29;20128;-85
2022/10/18 13:13:42;;;;;;;6.80;1.60;;;21.20;99.90;;;;;;4876833;29;20056;-85
2022/10/18 13:16:21;;;;;;;8.70;2.60;;;21.20;99.90;;;;;;4888175;29;20041;-84
2022/10/18 13:19:19;;;;;;;5.70;1.20;;;21.30;99.90;;;;;;4874584;29;20060;-85
2022/10/18 13:21:48;;;;;;;4.82;2.03;;;21.40;99.90;;;;;;4866277;29;20059;-85
2022/10/18 13:24:43;;;;;;;6.30;1.60;;;21.40;99.90;;;;;;4871811;29;20510;-85
2022/10/18 13:27:16;;;;;;;7.15;1.48;;;21.50;99.90;;;;;;4882717;29;20138;-84
2022/10/18 13:30:28;;;;;;;3.45;1.50;;;21.60;99.90;;;;;;4869473;29;20117;-85
2022/10/18 13:33:26;;;;;;;6.05;1.75;;;21.70;99.90;;;;;;4871484;29;20049;-85
2022/10/18 13:35:59;;;;;;;3.72;1.27;;;21.80;99.90;;;;;;4887658;29;20064;-85
2022/10/18 13:38:29;;;;;;;2.92;1.52;;;21.80;99.90;;;;;;4865540;29;20050;-85
2022/10/18 13:41:09;;;;;;;12.07;1.92;;;21.90;99.90;;;;;;4876311;29;20056;-84
2022/10/18 13:43:51;;;;;;;11.40;2.20;;;21.90;99.90;;;;;;4883130;29;20053;-85
2022/10/18 13:46:35;;;;;;;5.38;1.67;;;21.90;99.90;;;;;;4882429;29;20060;-85
2022/10/18 13:49:32;;;;;;;6.38;1.60;;;21.90;99.90;;;;;;4884362;29;20049;-85
2022/10/18 13:52:20;;;;;;;3.83;1.63;;;21.80;99.90;;;;;;4875418;29;20061;-85
2022/10/18 13:54:47;;;;;;;7.03;1.92;;;21.80;99.90;;;;;;4870973;29;20067;-84
2022/10/18 13:57:13;;;;;;;9.35;1.70;;;21.80;99.90;;;;;;4867497;29;20416;-85
2022/10/18 14:00:02;;;;;;;5.95;1.52;;;21.70;99.90;;;;;;4873074;29;20049;-86
2022/10/18 14:02:37;;;;;;;5.45;1.50;;;21.80;99.90;;;;;;4871210;29;20056;-85
2022/10/18 14:05:45;;;;;;;2.70;1.50;;;21.80;99.90;;;;;;4874494;29;20151;-85
2022/10/18 14:08:20;;;;;;;4.45;2.17;;;21.70;99.90;;;;;;4875569;29;20050;-86
2022/10/18 14:11:12;;;;;;;6.57;1.75;;;21.70;99.90;;;;;;4873086;29;20231;-80
2022/10/18 14:13:50;;;;;;;4.93;1.70;;;21.70;99.90;;;;;;4878395;29;20184;-78
2022/10/18 14:16:42;;;;;;;3.90;1.95;;;21.60;99.90;;;;;;4879774;29;20049;-79
2022/10/18 14:19:29;;;;;;;2.88;1.67;;;21.60;99.90;;;;;;4878533;29;20053;-79
2022/10/18 14:22:08;;;;;;;7.82;1.20;;;21.60;99.90;;;;;;4875586;29;20049;-80
2022/10/18 14:24:37;;;;;;;7.97;1.88;;;21.60;99.90;;;;;;4875892;29;20053;-80
2022/10/18 14:27:27;;;;;;;4.80;1.60;;;21.50;99.90;;;;;;4877935;29;20053;-81
2022/10/18 14:30:19;;;;;;;6.47;1.80;;;21.60;99.90;;;;;;4876723;29;20154;-81
2022/10/18 14:32:49;;;;;;;6.65;1.40;;;21.60;99.90;;;;;;4872208;29;20053;-80
2022/10/18 14:35:28;;;;;;;5.00;2.00;;;21.50;99.90;;;;;;4874011;29;20052;-81
2022/10/18 14:38:00;;;;;;;3.42;1.50;;;21.50;99.90;;;;;;4871084;29;20042;-81
2022/10/18 14:40:27;;;;;;;6.93;1.67;;;21.50;99.90;;;;;;4868940;29;20073;-80
2022/10/18 14:42:54;;;;;;;9.15;3.13;;;21.50;99.90;;;;;;4878623;29;20651;-80
2022/10/18 14:45:22;;;;;;;5.47;1.85;;;21.50;99.90;;;;;;4876714;29;20061;-80
2022/10/18 14:47:49;;;;;;;5.80;1.77;;;21.40;99.90;;;;;;4877647;29;20049;-79
2022/10/18 14:50:26;;;;;;;4.45;1.73;;;21.40;99.90;;;;;;4873564;29;20056;-80
2022/10/18 14:52:56;;;;;;;7.80;1.40;;;21.30;99.90;;;;;;4879714;29;20082;-80
2022/10/18 14:55:27;;;;;;;6.90;2.50;;;21.30;99.90;;;;;;4878155;29;20053;-79
2022/10/18 14:57:54;;;;;;;5.57;1.50;;;21.30;99.90;;;;;;4880164;29;20483;-79
2022/10/18 15:00:36;;;;;;;7.13;2.08;;;21.30;99.90;;;;;;4883946;29;20064;-79
2022/10/18 15:03:06;;;;;;;7.18;2.08;;;21.30;99.90;;;;;;4875119;29;20056;-79
2022/10/18 15:05:32;;;;;;;5.50;1.80;;;21.20;99.90;;;;;;4878585;29;20063;-78
2022/10/18 15:07:59;;;;;;;5.90;1.63;;;21.20;99.90;;;;;;4870325;29;20053;-80
2022/10/18 15:10:29;;;;;;;7.57;1.90;;;21.20;99.90;;;;;;4873456;29;20432;-79
2022/10/18 15:13:01;;;;;;;6.28;1.83;;;21.20;99.90;;;;;;4872550;29;20056;-79
2022/10/18 15:15:38;;;;;;;6.93;1.58;;;21.10;99.90;;;;;;4881880;29;20053;-80
2022/10/18 15:18:06;;;;;;;2.60;1.20;;;21.20;99.90;;;;;;4877632;29;20050;-80
2022/10/18 15:20:41;;;;;;;6.35;1.60;;;21.10;99.90;;;;;;4871542;29;20088;-80
2022/10/18 15:23:25;;;;;;;5.15;1.70;;;21.10;99.90;;;;;;4878761;29;20045;-81
2022/10/18 15:26:00;;;;;;;3.47;1.75;;;21.00;99.90;;;;;;4875911;29;20056;-80
2022/10/18 15:28:30;;;;;;;5.15;1.83;;;21.00;99.90;;;;;;4880972;29;20063;-80
2022/10/18 15:30:57;;;;;;;10.10;1.77;;;21.00;99.90;;;;;;4880197;29;20089;-80
2022/10/18 15:33:26;;;;;;;5.95;1.75;;;21.00;99.90;;;;;;4877131;29;20507;-80
2022/10/18 15:35:53;;;;;;;9.93;2.08;;;20.90;99.90;;;;;;4875677;29;20049;-79
2022/10/18 15:38:20;;;;;;;5.93;2.03;;;20.90;99.90;;;;;;4876601;29;20049;-81
2022/10/18 15:40:47;;;;;;;7.50;1.75;;;20.90;99.90;;;;;;4879880;29;20060;-79
2022/10/18 15:43:23;;;;;;;7.30;1.95;;;20.80;99.90;;;;;;4877323;29;20055;-80
2022/10/18 15:45:52;;;;;;;4.80;1.75;;;20.80;99.90;;;;;;4871592;29;20085;-79
2022/10/18 15:48:22;;;;;;;10.93;2.05;;;20.80;99.90;;;;;;4878430;29;20076;-80
2022/10/18 15:51:03;;;;;;;4.18;1.27;;;20.70;99.90;;;;;;4870404;29;20061;-79
2022/10/18 15:53:33;;;;;;;8.23;2.45;;;20.60;99.90;;;;;;4877944;29;20534;-79
2022/10/18 15:56:33;;;;;;;7.30;1.48;;;20.70;99.90;;;;;;4871981;29;20049;-79
2022/10/18 15:59:03;;;;;;;6.75;2.10;;;20.60;99.90;;;;;;4878850;29;20057;-81